sensor_id;sensor_type;location;lat;lon;timestamp;pressure;altitude;pressure_sealevel;temperature;humidity
64711;BME280;51139;45.626;6.850;2023-07-28T00:01:19;82071.91;;;16.39;54.01
64711;BME280;51139;45.626;6.850;2023-07-28T00:03:45;82070.81;;;16.07;56.69
64711;BME280;51139;45.626;6.850;2023-07-28T00:06:10;82078.66;;;16.28;55.40
64711;BME280;51139;45.626;6.850;2023-07-28T00:08:35;82082.88;;;16.08;56.99
64711;BME280;51139;45.626;6.850;2023-07-28T00:11:01;82075.25;;;16.02;56.70
64711;BME280;51139;45.626;6.850;2023-07-28T00:13:26;82076.38;;;15.51;59.41
64711;BME280;51139;45.626;6.850;2023-07-28T00:15:51;82076.25;;;15.85;57.00
64711;BME280;51139;45.626;6.850;2023-07-28T00:18:17;82076.72;;;16.67;53.42
64711;BME280;51139;45.626;6.850;2023-07-28T00:20:43;82086.44;;;16.48;54.14
64711;BME280;51139;45.626;6.850;2023-07-28T00:23:09;82088.91;;;16.32;55.11
64711;BME280;51139;45.626;6.850;2023-07-28T00:25:34;82081.63;;;15.97;55.51
64711;BME280;51139;45.626;6.850;2023-07-28T00:27:59;82091.34;;;16.28;55.57
64711;BME280;51139;45.626;6.850;2023-07-28T00:30:25;82090.41;;;16.23;54.69
64711;BME280;51139;45.626;6.850;2023-07-28T00:32:50;82100.25;;;16.44;53.87
64711;BME280;51139;45.626;6.850;2023-07-28T00:35:16;82090.16;;;16.43;53.69
64711;BME280;51139;45.626;6.850;2023-07-28T00:37:41;82088.09;;;16.17;54.94
64711;BME280;51139;45.626;6.850;2023-07-28T00:40:07;82094.25;;;16.20;55.59
64711;BME280;51139;45.626;6.850;2023-07-28T00:42:32;82103.03;;;16.58;53.79
64711;BME280;51139;45.626;6.850;2023-07-28T00:44:58;82116.41;;;16.96;51.34
64711;BME280;51139;45.626;6.850;2023-07-28T00:47:24;82124.59;;;17.12;50.88
64711;BME280;51139;45.626;6.850;2023-07-28T00:49:49;82116.53;;;16.98;50.11
64711;BME280;51139;45.626;6.850;2023-07-28T00:52:14;82118.34;;;17.33;49.14
64711;BME280;51139;45.626;6.850;2023-07-28T00:54:40;82113.50;;;16.42;51.67
64711;BME280;51139;45.626;6.850;2023-07-28T00:57:05;82119.84;;;17.11;50.16
64711;BME280;51139;45.626;6.850;2023-07-28T00:59:31;82132.97;;;17.18;49.52
64711;BME280;51139;45.626;6.850;2023-07-28T01:01:56;82132.16;;;17.42;48.99
64711;BME280;51139;45.626;6.850;2023-07-28T01:04:22;82128.47;;;16.59;50.88
64711;BME280;51139;45.626;6.850;2023-07-28T01:09:29;82129.63;;;17.06;50.01
64711;BME280;51139;45.626;6.850;2023-07-28T01:11:59;82137.19;;;17.10;49.31
64711;BME280;51139;45.626;6.850;2023-07-28T01:14:25;82126.91;;;16.80;50.65
64711;BME280;51139;45.626;6.850;2023-07-28T01:16:51;82133.41;;;16.89;50.35
64711;BME280;51139;45.626;6.850;2023-07-28T01:19:17;82139.28;;;17.11;50.33
64711;BME280;51139;45.626;6.850;2023-07-28T01:21:46;82140.84;;;17.02;50.51
64711;BME280;51139;45.626;6.850;2023-07-28T01:24:45;82138.84;;;16.41;51.90
64711;BME280;51139;45.626;6.850;2023-07-28T01:27:15;82144.09;;;16.89;51.38
64711;BME280;51139;45.626;6.850;2023-07-28T01:29:41;82136.28;;;17.05;50.85
64711;BME280;51139;45.626;6.850;2023-07-28T01:32:07;82137.47;;;16.90;51.72
64711;BME280;51139;45.626;6.850;2023-07-28T01:34:33;82139.59;;;16.80;52.10
64711;BME280;51139;45.626;6.850;2023-07-28T01:36:59;82126.47;;;16.72;51.83
64711;BME280;51139;45.626;6.850;2023-07-28T01:39:24;82140.91;;;16.55;53.32
64711;BME280;51139;45.626;6.850;2023-07-28T01:41:50;82127.09;;;16.58;53.09
64711;BME280;51139;45.626;6.850;2023-07-28T01:44:15;82122.78;;;16.53;52.29
64711;BME280;51139;45.626;6.850;2023-07-28T01:46:40;82120.50;;;16.85;51.88
64711;BME280;51139;45.626;6.850;2023-07-28T01:49:05;82124.28;;;17.06;52.08
64711;BME280;51139;45.626;6.850;2023-07-28T01:51:31;82123.75;;;17.21;51.60
64711;BME280;51139;45.626;6.850;2023-07-28T01:53:56;82114.09;;;16.90;51.83
64711;BME280;51139;45.626;6.850;2023-07-28T01:56:21;82116.94;;;16.69;52.68
64711;BME280;51139;45.626;6.850;2023-07-28T01:58:47;82107.06;;;17.09;51.52
64711;BME280;51139;45.626;6.850;2023-07-28T02:01:13;82108.91;;;16.69;52.68
64711;BME280;51139;45.626;6.850;2023-07-28T02:03:38;82113.88;;;16.74;52.84
64711;BME280;51139;45.626;6.850;2023-07-28T02:06:03;82107.31;;;16.63;53.49
64711;BME280;51139;45.626;6.850;2023-07-28T02:08:29;82095.47;;;17.04;52.16
64711;BME280;51139;45.626;6.850;2023-07-28T02:10:54;82102.47;;;17.24;51.17
64711;BME280;51139;45.626;6.850;2023-07-28T02:13:19;82099.94;;;16.76;53.08
64711;BME280;51139;45.626;6.850;2023-07-28T02:15:45;82095.25;;;16.88;53.39
64711;BME280;51139;45.626;6.850;2023-07-28T02:18:11;82096.88;;;17.19;51.13
64711;BME280;51139;45.626;6.850;2023-07-28T02:20:36;82090.56;;;17.01;52.09
64711;BME280;51139;45.626;6.850;2023-07-28T02:23:03;82100.50;;;16.86;52.39
64711;BME280;51139;45.626;6.850;2023-07-28T02:25:28;82088.91;;;16.82;53.18
64711;BME280;51139;45.626;6.850;2023-07-28T02:27:53;82090.47;;;16.99;53.37
64711;BME280;51139;45.626;6.850;2023-07-28T02:30:19;82091.06;;;16.85;53.05
64711;BME280;51139;45.626;6.850;2023-07-28T02:32:44;82099.81;;;16.86;52.68
64711;BME280;51139;45.626;6.850;2023-07-28T02:35:09;82100.28;;;16.82;53.23
64711;BME280;51139;45.626;6.850;2023-07-28T02:37:35;82093.31;;;16.77;53.56
64711;BME280;51139;45.626;6.850;2023-07-28T02:40:01;82089.06;;;16.98;53.68
64711;BME280;51139;45.626;6.850;2023-07-28T02:42:26;82083.47;;;16.68;53.83
64711;BME280;51139;45.626;6.850;2023-07-28T02:44:52;82083.66;;;16.84;53.45
64711;BME280;51139;45.626;6.850;2023-07-28T02:47:17;82076.72;;;16.67;53.96
64711;BME280;51139;45.626;6.850;2023-07-28T02:49:43;82073.06;;;16.48;55.66
64711;BME280;51139;45.626;6.850;2023-07-28T02:52:08;82070.22;;;16.58;54.85
64711;BME280;51139;45.626;6.850;2023-07-28T02:54:34;82066.31;;;16.47;55.59
64711;BME280;51139;45.626;6.850;2023-07-28T02:56:59;82060.53;;;16.39;56.33
64711;BME280;51139;45.626;6.850;2023-07-28T02:59:25;82061.78;;;16.49;56.80
64711;BME280;51139;45.626;6.850;2023-07-28T03:01:50;82063.22;;;16.27;57.62
64711;BME280;51139;45.626;6.850;2023-07-28T03:04:18;82071.28;;;16.53;56.75
64711;BME280;51139;45.626;6.850;2023-07-28T03:06:44;82056.63;;;16.16;56.98
64711;BME280;51139;45.626;6.850;2023-07-28T03:09:09;82057.03;;;16.48;57.73
64711;BME280;51139;45.626;6.850;2023-07-28T03:11:34;82059.25;;;16.40;58.44
64711;BME280;51139;45.626;6.850;2023-07-28T03:14:00;82060.97;;;16.47;58.79
64711;BME280;51139;45.626;6.850;2023-07-28T03:16:25;82055.97;;;16.53;58.45
64711;BME280;51139;45.626;6.850;2023-07-28T03:18:51;82055.56;;;16.21;59.82
64711;BME280;51139;45.626;6.850;2023-07-28T03:21:16;82056.72;;;16.18;60.10
64711;BME280;51139;45.626;6.850;2023-07-28T03:23:41;82060.19;;;16.70;57.07
64711;BME280;51139;45.626;6.850;2023-07-28T03:26:06;82052.78;;;16.19;59.61
64711;BME280;51139;45.626;6.850;2023-07-28T03:28:32;82056.38;;;16.36;60.24
64711;BME280;51139;45.626;6.850;2023-07-28T03:30:57;82047.72;;;16.49;57.66
64711;BME280;51139;45.626;6.850;2023-07-28T03:33:22;82054.47;;;16.50;58.18
64711;BME280;51139;45.626;6.850;2023-07-28T03:35:48;82050.31;;;16.35;57.94
64711;BME280;51139;45.626;6.850;2023-07-28T03:38:13;82053.50;;;16.57;57.78
64711;BME280;51139;45.626;6.850;2023-07-28T03:40:38;82042.84;;;16.45;56.86
64711;BME280;51139;45.626;6.850;2023-07-28T03:43:04;82044.75;;;16.31;58.13
64711;BME280;51139;45.626;6.850;2023-07-28T03:45:29;82037.28;;;16.41;57.59
64711;BME280;51139;45.626;6.850;2023-07-28T03:47:55;82041.63;;;16.60;57.36
64711;BME280;51139;45.626;6.850;2023-07-28T03:50:20;82041.94;;;16.41;58.42
64711;BME280;51139;45.626;6.850;2023-07-28T03:52:45;82044.53;;;16.15;59.04
64711;BME280;51139;45.626;6.850;2023-07-28T03:55:11;82042.75;;;16.31;58.08
64711;BME280;51139;45.626;6.850;2023-07-28T03:57:36;82043.03;;;16.24;59.47
64711;BME280;51139;45.626;6.850;2023-07-28T04:00:02;82040.19;;;16.33;58.47
64711;BME280;51139;45.626;6.850;2023-07-28T04:02:27;82036.00;;;16.42;57.62
64711;BME280;51139;45.626;6.850;2023-07-28T04:04:53;82040.56;;;16.91;56.43
64711;BME280;51139;45.626;6.850;2023-07-28T04:07:19;82050.66;;;17.05;55.31
64711;BME280;51139;45.626;6.850;2023-07-28T04:09:45;82055.13;;;16.88;55.90
64711;BME280;51139;45.626;6.850;2023-07-28T04:12:10;82046.59;;;16.28;58.15
64711;BME280;51139;45.626;6.850;2023-07-28T04:14:35;82048.50;;;16.63;57.26
64711;BME280;51139;45.626;6.850;2023-07-28T04:17:01;82054.06;;;16.93;55.76
64711;BME280;51139;45.626;6.850;2023-07-28T04:19:27;82057.25;;;17.16;54.88
64711;BME280;51139;45.626;6.850;2023-07-28T04:21:54;82053.50;;;17.21;54.88
64711;BME280;51139;45.626;6.850;2023-07-28T04:24:19;82062.44;;;17.00;57.11
64711;BME280;51139;45.626;6.850;2023-07-28T04:26:46;82063.72;;;16.99;57.50
64711;BME280;51139;45.626;6.850;2023-07-28T04:29:14;82059.09;;;16.87;58.66
64711;BME280;51139;45.626;6.850;2023-07-28T04:31:39;82058.34;;;16.23;61.25
64711;BME280;51139;45.626;6.850;2023-07-28T04:34:04;82058.47;;;16.25;61.51
64711;BME280;51139;45.626;6.850;2023-07-28T04:36:30;82057.81;;;15.65;63.33
64711;BME280;51139;45.626;6.850;2023-07-28T04:38:55;82053.44;;;16.43;60.48
64711;BME280;51139;45.626;6.850;2023-07-28T04:41:20;82051.84;;;16.26;59.87
64711;BME280;51139;45.626;6.850;2023-07-28T04:43:46;82050.28;;;16.85;57.67
64711;BME280;51139;45.626;6.850;2023-07-28T04:46:11;82051.97;;;16.92;57.72
64711;BME280;51139;45.626;6.850;2023-07-28T04:48:37;82065.94;;;16.53;59.36
64711;BME280;51139;45.626;6.850;2023-07-28T04:51:02;82067.53;;;16.70;59.94
64711;BME280;51139;45.626;6.850;2023-07-28T04:53:27;82057.47;;;16.56;60.65
64711;BME280;51139;45.626;6.850;2023-07-28T04:55:53;82058.25;;;16.21;62.08
64711;BME280;51139;45.626;6.850;2023-07-28T04:58:18;82062.44;;;16.62;59.64
64711;BME280;51139;45.626;6.850;2023-07-28T05:00:43;82066.31;;;16.47;60.60
64711;BME280;51139;45.626;6.850;2023-07-28T05:03:09;82066.84;;;16.95;58.00
64711;BME280;51139;45.626;6.850;2023-07-28T05:05:34;82074.06;;;16.67;58.84
64711;BME280;51139;45.626;6.850;2023-07-28T05:07:59;82070.59;;;16.90;57.73
64711;BME280;51139;45.626;6.850;2023-07-28T05:10:25;82069.69;;;16.85;59.11
64711;BME280;51139;45.626;6.850;2023-07-28T05:12:50;82073.28;;;17.16;58.20
64711;BME280;51139;45.626;6.850;2023-07-28T05:15:15;82074.88;;;16.95;57.98
64711;BME280;51139;45.626;6.850;2023-07-28T05:17:41;82074.00;;;16.78;58.80
64711;BME280;51139;45.626;6.850;2023-07-28T05:20:06;82074.38;;;16.73;59.59
64711;BME280;51139;45.626;6.850;2023-07-28T05:22:32;82082.59;;;16.51;61.14
64711;BME280;51139;45.626;6.850;2023-07-28T05:24:58;82073.53;;;16.32;60.48
64711;BME280;51139;45.626;6.850;2023-07-28T05:27:23;82065.91;;;16.15;61.39
64711;BME280;51139;45.626;6.850;2023-07-28T05:29:49;82070.53;;;16.76;59.33
64711;BME280;51139;45.626;6.850;2023-07-28T05:32:14;82070.78;;;17.06;58.25
64711;BME280;51139;45.626;6.850;2023-07-28T05:34:42;82077.31;;;17.03;58.24
64711;BME280;51139;45.626;6.850;2023-07-28T05:37:08;82075.25;;;17.15;59.46
64711;BME280;51139;45.626;6.850;2023-07-28T05:39:34;82076.56;;;17.14;61.08
64711;BME280;51139;45.626;6.850;2023-07-28T05:41:59;82076.22;;;17.08;58.97
64711;BME280;51139;45.626;6.850;2023-07-28T05:44:25;82071.16;;;17.26;58.54
64711;BME280;51139;45.626;6.850;2023-07-28T05:46:50;82074.94;;;17.35;58.84
64711;BME280;51139;45.626;6.850;2023-07-28T05:49:15;82079.44;;;17.44;57.12
64711;BME280;51139;45.626;6.850;2023-07-28T05:51:41;82070.44;;;17.52;57.81
64711;BME280;51139;45.626;6.850;2023-07-28T05:54:06;82081.09;;;17.38;56.94
64711;BME280;51139;45.626;6.850;2023-07-28T05:56:32;82083.34;;;17.29;56.78
64711;BME280;51139;45.626;6.850;2023-07-28T05:58:57;82087.78;;;17.50;56.79
64711;BME280;51139;45.626;6.850;2023-07-28T06:01:22;82089.28;;;17.54;55.86
64711;BME280;51139;45.626;6.850;2023-07-28T06:03:50;82080.19;;;17.73;54.78
64711;BME280;51139;45.626;6.850;2023-07-28T06:06:17;82090.81;;;17.71;56.63
64711;BME280;51139;45.626;6.850;2023-07-28T06:08:43;82085.94;;;17.01;60.27
64711;BME280;51139;45.626;6.850;2023-07-28T06:11:09;82089.19;;;17.00;59.46
64711;BME280;51139;45.626;6.850;2023-07-28T06:13:34;82096.34;;;16.10;64.99
64711;BME280;51139;45.626;6.850;2023-07-28T06:16:00;82083.06;;;16.47;63.22
64711;BME280;51139;45.626;6.850;2023-07-28T06:18:26;82094.78;;;16.54;61.51
64711;BME280;51139;45.626;6.850;2023-07-28T06:20:52;82096.09;;;16.79;60.23
64711;BME280;51139;45.626;6.850;2023-07-28T06:23:17;82102.03;;;17.15;58.56
64711;BME280;51139;45.626;6.850;2023-07-28T06:25:43;82097.84;;;17.12;59.14
64711;BME280;51139;45.626;6.850;2023-07-28T06:28:11;82105.44;;;17.04;62.56
64711;BME280;51139;45.626;6.850;2023-07-28T06:30:37;82099.81;;;17.24;60.65
64711;BME280;51139;45.626;6.850;2023-07-28T06:33:05;82098.28;;;17.20;59.58
64711;BME280;51139;45.626;6.850;2023-07-28T06:35:30;82098.34;;;17.34;60.13
64711;BME280;51139;45.626;6.850;2023-07-28T06:37:56;82106.78;;;17.69;58.99
64711;BME280;51139;45.626;6.850;2023-07-28T06:40:21;82111.09;;;17.62;59.27
64711;BME280;51139;45.626;6.850;2023-07-28T06:42:46;82103.75;;;17.62;58.10
64711;BME280;51139;45.626;6.850;2023-07-28T06:45:11;82106.72;;;17.55;58.76
64711;BME280;51139;45.626;6.850;2023-07-28T06:47:37;82115.34;;;17.53;57.05
64711;BME280;51139;45.626;6.850;2023-07-28T06:50:03;82111.00;;;17.60;57.96
64711;BME280;51139;45.626;6.850;2023-07-28T06:52:30;82118.41;;;17.21;60.26
64711;BME280;51139;45.626;6.850;2023-07-28T06:54:55;82111.34;;;17.40;61.72
64711;BME280;51139;45.626;6.850;2023-07-28T06:57:21;82110.38;;;17.21;63.54
64711;BME280;51139;45.626;6.850;2023-07-28T06:59:47;82109.16;;;17.36;62.45
64711;BME280;51139;45.626;6.850;2023-07-28T07:02:12;82109.59;;;16.81;61.27
64711;BME280;51139;45.626;6.850;2023-07-28T07:04:37;82117.34;;;16.51;62.91
64711;BME280;51139;45.626;6.850;2023-07-28T07:07:03;82109.72;;;16.71;61.25
64711;BME280;51139;45.626;6.850;2023-07-28T07:09:28;82110.84;;;16.92;61.57
64711;BME280;51139;45.626;6.850;2023-07-28T07:11:54;82117.28;;;17.39;59.98
64711;BME280;51139;45.626;6.850;2023-07-28T07:14:19;82118.75;;;17.28;59.10
64711;BME280;51139;45.626;6.850;2023-07-28T07:16:45;82116.00;;;18.19;57.98
64711;BME280;51139;45.626;6.850;2023-07-28T07:19:10;82117.09;;;18.42;57.92
64711;BME280;51139;45.626;6.850;2023-07-28T07:21:36;82111.81;;;18.58;56.24
64711;BME280;51139;45.626;6.850;2023-07-28T07:24:03;82122.66;;;18.32;57.15
64711;BME280;51139;45.626;6.850;2023-07-28T07:26:28;82127.22;;;18.58;55.31
64711;BME280;51139;45.626;6.850;2023-07-28T07:28:54;82132.28;;;18.51;55.89
64711;BME280;51139;45.626;6.850;2023-07-28T07:31:19;82120.47;;;18.57;54.28
64711;BME280;51139;45.626;6.850;2023-07-28T07:33:45;82128.41;;;18.83;54.36
64711;BME280;51139;45.626;6.850;2023-07-28T07:36:18;82127.81;;;18.98;54.93
64711;BME280;51139;45.626;6.850;2023-07-28T07:38:44;82137.16;;;18.55;54.60
64711;BME280;51139;45.626;6.850;2023-07-28T07:41:11;82136.53;;;18.15;55.21
64711;BME280;51139;45.626;6.850;2023-07-28T07:43:38;82132.88;;;18.36;55.46
64711;BME280;51139;45.626;6.850;2023-07-28T07:46:03;82145.25;;;18.01;55.83
64711;BME280;51139;45.626;6.850;2023-07-28T07:48:28;82146.59;;;18.28;54.25
64711;BME280;51139;45.626;6.850;2023-07-28T07:50:54;82138.34;;;18.52;53.10
64711;BME280;51139;45.626;6.850;2023-07-28T07:53:19;82144.59;;;18.71;52.95
64711;BME280;51139;45.626;6.850;2023-07-28T07:55:45;82142.19;;;18.91;52.62
64711;BME280;51139;45.626;6.850;2023-07-28T07:58:10;82143.00;;;18.79;51.53
64711;BME280;51139;45.626;6.850;2023-07-28T08:00:37;82138.81;;;18.90;51.73
64711;BME280;51139;45.626;6.850;2023-07-28T08:03:03;82141.53;;;18.76;54.52
64711;BME280;51139;45.626;6.850;2023-07-28T08:05:30;82133.38;;;18.46;53.97
64711;BME280;51139;45.626;6.850;2023-07-28T08:07:55;82144.50;;;18.55;56.63
64711;BME280;51139;45.626;6.850;2023-07-28T08:10:20;82149.97;;;18.85;57.44
64711;BME280;51139;45.626;6.850;2023-07-28T08:12:46;82147.78;;;19.09;52.51
64711;BME280;51139;45.626;6.850;2023-07-28T08:15:12;82152.47;;;19.38;52.95
64711;BME280;51139;45.626;6.850;2023-07-28T08:17:38;82142.19;;;18.91;52.66
64711;BME280;51139;45.626;6.850;2023-07-28T08:20:04;82155.03;;;18.36;51.83
64711;BME280;51139;45.626;6.850;2023-07-28T08:22:30;82163.88;;;18.81;51.89
64711;BME280;51139;45.626;6.850;2023-07-28T08:24:56;82159.78;;;17.84;53.61
64711;BME280;51139;45.626;6.850;2023-07-28T08:27:21;82155.34;;;18.57;52.91
64711;BME280;51139;45.626;6.850;2023-07-28T08:29:46;82155.63;;;19.05;51.61
64711;BME280;51139;45.626;6.850;2023-07-28T08:32:12;82155.91;;;19.11;51.62
64711;BME280;51139;45.626;6.850;2023-07-28T08:34:37;82161.72;;;19.35;50.44
64711;BME280;51139;45.626;6.850;2023-07-28T08:37:02;82156.66;;;19.72;49.79
64711;BME280;51139;45.626;6.850;2023-07-28T08:39:28;82162.63;;;19.40;53.72
64711;BME280;51139;45.626;6.850;2023-07-28T08:42:01;82151.97;;;20.02;49.25
64711;BME280;51139;45.626;6.850;2023-07-28T08:44:29;82154.28;;;19.64;52.36
64711;BME280;51139;45.626;6.850;2023-07-28T08:46:55;82158.41;;;20.27;49.10
64711;BME280;51139;45.626;6.850;2023-07-28T08:49:21;82157.38;;;19.88;51.78
64711;BME280;51139;45.626;6.850;2023-07-28T08:51:50;82153.66;;;20.41;50.20
64711;BME280;51139;45.626;6.850;2023-07-28T08:54:16;82152.41;;;20.29;47.14
64711;BME280;51139;45.626;6.850;2023-07-28T08:56:42;82147.75;;;20.29;52.62
64711;BME280;51139;45.626;6.850;2023-07-28T08:59:09;82146.25;;;19.94;50.78
64711;BME280;51139;45.626;6.850;2023-07-28T09:01:39;82137.69;;;19.83;55.09
64711;BME280;51139;45.626;6.850;2023-07-28T09:04:09;82131.50;;;19.35;55.94
64711;BME280;51139;45.626;6.850;2023-07-28T09:06:35;82139.38;;;20.07;54.00
64711;BME280;51139;45.626;6.850;2023-07-28T09:09:01;82142.69;;;20.21;51.94
64711;BME280;51139;45.626;6.850;2023-07-28T09:11:26;82139.00;;;19.22;55.18
64711;BME280;51139;45.626;6.850;2023-07-28T09:13:54;82145.09;;;19.69;52.60
64711;BME280;51139;45.626;6.850;2023-07-28T09:16:20;82144.41;;;19.98;52.64
64711;BME280;51139;45.626;6.850;2023-07-28T09:18:45;82148.31;;;19.95;52.08
64711;BME280;51139;45.626;6.850;2023-07-28T09:21:18;82151.69;;;19.36;55.49
64711;BME280;51139;45.626;6.850;2023-07-28T09:23:48;82153.25;;;19.41;57.31
64711;BME280;51139;45.626;6.850;2023-07-28T09:26:15;82143.13;;;19.69;52.35
64711;BME280;51139;45.626;6.850;2023-07-28T09:28:40;82136.72;;;20.23;51.61
64711;BME280;51139;45.626;6.850;2023-07-28T09:31:06;82140.97;;;19.96;53.52
64711;BME280;51139;45.626;6.850;2023-07-28T09:33:34;82147.19;;;19.71;54.60
64711;BME280;51139;45.626;6.850;2023-07-28T09:36:26;82156.31;;;19.49;55.35
64711;BME280;51139;45.626;6.850;2023-07-28T09:38:53;82161.56;;;19.91;57.05
64711;BME280;51139;45.626;6.850;2023-07-28T09:41:19;82166.00;;;20.01;55.21
64711;BME280;51139;45.626;6.850;2023-07-28T09:43:46;82166.41;;;19.65;55.90
64711;BME280;51139;45.626;6.850;2023-07-28T09:46:17;82168.88;;;20.05;53.84
64711;BME280;51139;45.626;6.850;2023-07-28T09:48:45;82170.94;;;19.90;51.41
64711;BME280;51139;45.626;6.850;2023-07-28T09:51:18;82173.34;;;20.30;50.56
64711;BME280;51139;45.626;6.850;2023-07-28T09:53:49;82171.19;;;19.96;48.73
64711;BME280;51139;45.626;6.850;2023-07-28T09:56:16;82167.69;;;20.56;48.03
64711;BME280;51139;45.626;6.850;2023-07-28T09:58:49;82162.41;;;20.26;48.42
64711;BME280;51139;45.626;6.850;2023-07-28T10:01:15;82161.59;;;20.07;47.99
64711;BME280;51139;45.626;6.850;2023-07-28T10:03:40;82159.25;;;19.86;48.81
64711;BME280;51139;45.626;6.850;2023-07-28T10:06:06;82154.25;;;20.56;46.68
64711;BME280;51139;45.626;6.850;2023-07-28T10:08:32;82162.63;;;20.16;50.36
64711;BME280;51139;45.626;6.850;2023-07-28T10:10:58;82152.06;;;20.68;48.38
64711;BME280;51139;45.626;6.850;2023-07-28T10:13:24;82164.06;;;20.81;48.01
64711;BME280;51139;45.626;6.850;2023-07-28T10:15:50;82160.94;;;20.87;48.02
64711;BME280;51139;45.626;6.850;2023-07-28T10:18:19;82159.66;;;20.88;45.72
64711;BME280;51139;45.626;6.850;2023-07-28T10:20:45;82162.16;;;20.84;46.74
64711;BME280;51139;45.626;6.850;2023-07-28T10:23:21;82163.72;;;20.89;46.13
64711;BME280;51139;45.626;6.850;2023-07-28T10:25:55;82172.09;;;21.13;44.98
64711;BME280;51139;45.626;6.850;2023-07-28T10:30:52;82168.66;;;20.63;47.33
64711;BME280;51139;45.626;6.850;2023-07-28T10:33:44;82178.44;;;21.04;46.49
64711;BME280;51139;45.626;6.850;2023-07-28T10:36:31;82181.31;;;20.60;47.17
64711;BME280;51139;45.626;6.850;2023-07-28T10:41:29;82188.78;;;21.10;50.09
64711;BME280;51139;45.626;6.850;2023-07-28T10:43:56;82183.13;;;20.71;50.20
64711;BME280;51139;45.626;6.850;2023-07-28T10:46:21;82167.88;;;20.28;46.70
64711;BME280;51139;45.626;6.850;2023-07-28T10:48:49;82164.50;;;20.44;45.74
64711;BME280;51139;45.626;6.850;2023-07-28T10:51:26;82169.69;;;21.04;44.42
64711;BME280;51139;45.626;6.850;2023-07-28T10:54:00;82161.81;;;20.60;48.98
64711;BME280;51139;45.626;6.850;2023-07-28T10:56:27;82171.25;;;20.77;46.59
64711;BME280;51139;45.626;6.850;2023-07-28T10:59:01;82163.00;;;21.05;46.28
64711;BME280;51139;45.626;6.850;2023-07-28T11:01:33;82165.88;;;20.61;46.98
64711;BME280;51139;45.626;6.850;2023-07-28T11:04:16;82158.34;;;21.23;44.59
64711;BME280;51139;45.626;6.850;2023-07-28T11:06:44;82172.94;;;21.34;46.05
64711;BME280;51139;45.626;6.850;2023-07-28T11:09:11;82161.63;;;20.88;46.43
64711;BME280;51139;45.626;6.850;2023-07-28T11:11:38;82161.19;;;20.45;48.68
64711;BME280;51139;45.626;6.850;2023-07-28T11:14:08;82160.31;;;20.40;49.17
64711;BME280;51139;45.626;6.850;2023-07-28T11:16:35;82156.75;;;21.00;48.17
64711;BME280;51139;45.626;6.850;2023-07-28T11:19:02;82169.78;;;21.40;46.36
64711;BME280;51139;45.626;6.850;2023-07-28T11:21:28;82164.03;;;21.48;47.67
64711;BME280;51139;45.626;6.850;2023-07-28T11:23:53;82160.78;;;21.33;46.56
64711;BME280;51139;45.626;6.850;2023-07-28T11:26:20;82162.00;;;20.80;49.13
64711;BME280;51139;45.626;6.850;2023-07-28T11:28:46;82152.41;;;20.12;52.32
64711;BME280;51139;45.626;6.850;2023-07-28T11:31:12;82154.41;;;19.96;53.62
64711;BME280;51139;45.626;6.850;2023-07-28T11:33:37;82160.44;;;19.96;54.30
64711;BME280;51139;45.626;6.850;2023-07-28T11:36:02;82168.91;;;20.21;54.73
64711;BME280;51139;45.626;6.850;2023-07-28T11:38:28;82177.72;;;20.07;53.98
64711;BME280;51139;45.626;6.850;2023-07-28T11:40:54;82172.63;;;20.14;56.52
64711;BME280;51139;45.626;6.850;2023-07-28T11:43:22;82171.78;;;20.25;53.14
64711;BME280;51139;45.626;6.850;2023-07-28T11:45:48;82170.56;;;20.76;52.83
64711;BME280;51139;45.626;6.850;2023-07-28T11:48:14;82172.78;;;20.02;57.71
64711;BME280;51139;45.626;6.850;2023-07-28T11:50:41;82168.41;;;20.56;55.61
64711;BME280;51139;45.626;6.850;2023-07-28T11:53:07;82172.63;;;20.14;57.34
64711;BME280;51139;45.626;6.850;2023-07-28T11:55:35;82161.19;;;20.45;56.48
64711;BME280;51139;45.626;6.850;2023-07-28T11:58:01;82170.84;;;20.82;53.06
64711;BME280;51139;45.626;6.850;2023-07-28T12:00:31;82168.41;;;20.89;51.54
64711;BME280;51139;45.626;6.850;2023-07-28T12:05:30;82165.97;;;20.95;52.59
64711;BME280;51139;45.626;6.850;2023-07-28T12:07:56;82153.81;;;20.94;55.94
64711;BME280;51139;45.626;6.850;2023-07-28T12:10:21;82156.06;;;20.99;49.74
64711;BME280;51139;45.626;6.850;2023-07-28T12:12:47;82157.72;;;20.59;54.18
64711;BME280;51139;45.626;6.850;2023-07-28T12:15:27;82154.84;;;21.03;48.99
64711;BME280;51139;45.626;6.850;2023-07-28T12:18:06;82150.09;;;20.69;56.76
64711;BME280;51139;45.626;6.850;2023-07-28T12:20:36;82154.09;;;21.52;57.70
64711;BME280;51139;45.626;6.850;2023-07-28T12:23:02;82153.81;;;20.94;58.65
64711;BME280;51139;45.626;6.850;2023-07-28T12:25:29;82152.56;;;21.13;57.42
64711;BME280;51139;45.626;6.850;2023-07-28T12:27:54;82153.16;;;21.11;57.00
64711;BME280;51139;45.626;6.850;2023-07-28T12:30:20;82150.09;;;21.53;55.95
64711;BME280;51139;45.626;6.850;2023-07-28T12:32:46;82148.59;;;21.84;54.52
64711;BME280;51139;45.626;6.850;2023-07-28T12:35:12;82148.47;;;21.80;53.62
64711;BME280;51139;45.626;6.850;2023-07-28T12:37:38;82139.59;;;21.25;54.78
64711;BME280;51139;45.626;6.850;2023-07-28T12:40:04;82144.00;;;21.53;50.62
64711;BME280;51139;45.626;6.850;2023-07-28T12:42:31;82151.88;;;21.65;50.55
64711;BME280;51139;45.626;6.850;2023-07-28T12:44:56;82155.13;;;22.15;46.33
64711;BME280;51139;45.626;6.850;2023-07-28T12:47:22;82133.69;;;21.47;51.34
64711;BME280;51139;45.626;6.850;2023-07-28T12:49:47;82158.78;;;22.04;49.23
64711;BME280;51139;45.626;6.850;2023-07-28T12:52:13;82165.31;;;21.81;46.86
64711;BME280;51139;45.626;6.850;2023-07-28T12:54:38;82159.00;;;21.74;47.30
64711;BME280;51139;45.626;6.850;2023-07-28T12:57:05;82161.69;;;22.28;45.65
64711;BME280;51139;45.626;6.850;2023-07-28T12:59:32;82159.53;;;22.07;45.36
64711;BME280;51139;45.626;6.850;2023-07-28T13:01:58;82164.84;;;22.05;47.09
64711;BME280;51139;45.626;6.850;2023-07-28T13:04:23;82161.66;;;21.56;49.21
64711;BME280;51139;45.626;6.850;2023-07-28T13:06:48;82169.63;;;22.24;46.41